createdAt,value
2023-02-27T00:00:56.206Z,102145.25
2023-02-27T00:03:42.954Z,102084.97
2023-02-27T00:06:30.077Z,102171.03
2023-02-27T00:09:17.966Z,102181.28
2023-02-27T00:12:05.054Z,102176.41
2023-02-27T00:14:52.050Z,102181.13
2023-02-27T00:17:39.168Z,102186.41
2023-02-27T00:20:26.194Z,102187.00
2023-02-27T00:23:12.845Z,102187.69
2023-02-27T00:26:01.180Z,102188.47
2023-02-27T00:28:47.700Z,102186.44
2023-02-27T00:31:35.797Z,102189.81
2023-02-27T00:34:22.465Z,102188.31
2023-02-27T00:37:09.182Z,102188.09
2023-02-27T00:39:55.979Z,102187.09
2023-02-27T00:42:46.288Z,102185.22
2023-02-27T00:45:32.678Z,102179.78
2023-02-27T00:48:20.643Z,102190.09
2023-02-27T00:51:10.068Z,102185.72
2023-02-27T00:54:03.996Z,102175.13
2023-02-27T00:56:50.853Z,102179.50
2023-02-27T00:59:38.815Z,102184.66
2023-02-27T01:02:26.039Z,102183.72
2023-02-27T01:05:15.642Z,102179.06
2023-02-27T01:08:02.025Z,102177.97
2023-02-27T01:10:49.188Z,102167.81
2023-02-27T01:13:36.718Z,102165.94
2023-02-27T01:16:25.605Z,102168.59
2023-02-27T01:19:12.143Z,102159.31
2023-02-27T01:21:58.983Z,102168.81
2023-02-27T01:24:45.774Z,102159.66
2023-02-27T01:27:33.485Z,102155.50
2023-02-27T01:30:20.487Z,102152.91
2023-02-27T01:33:08.891Z,102145.31
2023-02-27T01:35:55.993Z,102156.00
2023-02-27T01:38:42.535Z,102149.88
2023-02-27T01:41:29.940Z,102150.97
2023-02-27T01:44:16.568Z,102156.34
2023-02-27T01:47:03.140Z,102151.84
2023-02-27T01:49:52.653Z,102153.84
2023-02-27T01:52:42.163Z,102155.38
2023-02-27T01:55:32.469Z,102159.47
2023-02-27T01:58:19.916Z,102164.63
2023-02-27T02:01:08.657Z,102164.41
2023-02-27T02:04:02.012Z,102171.84
2023-02-27T02:07:06.840Z,102160.53
2023-02-27T02:09:58.086Z,102163.31
2023-02-27T02:12:47.340Z,102127.47
2023-02-27T02:15:52.399Z,102167.31
2023-02-27T02:18:51.549Z,102168.00
2023-02-27T02:22:09.306Z,102163.25
2023-02-27T02:25:29.786Z,102177.31
2023-02-27T02:28:31.773Z,102180.66
2023-02-27T02:31:45.945Z,102180.59
2023-02-27T02:34:58.551Z,102172.88
2023-02-27T02:38:18.159Z,102175.31
2023-02-27T02:41:13.149Z,102186.22
2023-02-27T02:44:07.214Z,102195.19
2023-02-27T02:47:04.515Z,102174.84
2023-02-27T02:49:58.654Z,102187.88
2023-02-27T02:52:54.745Z,102188.03
2023-02-27T02:55:46.871Z,102192.19
2023-02-27T02:58:39.051Z,102194.50
2023-02-27T03:01:31.685Z,102197.81
2023-02-27T03:04:23.860Z,102202.25
2023-02-27T03:07:15.617Z,102196.72
2023-02-27T03:10:09.511Z,102202.69
2023-02-27T03:13:02.890Z,102208.78
2023-02-27T03:15:59.893Z,102204.63
2023-02-27T03:18:55.150Z,102210.41
2023-02-27T03:21:46.174Z,102203.19
2023-02-27T03:24:38.243Z,102213.78
2023-02-27T03:27:30.880Z,102221.84
2023-02-27T03:30:24.488Z,102217.81
2023-02-27T03:33:17.476Z,102221.81
2023-02-27T03:36:10.720Z,102226.66
2023-02-27T03:39:04.264Z,102222.16
2023-02-27T03:42:00.982Z,102156.63
2023-02-27T03:45:20.809Z,102233.47
2023-02-27T03:48:09.184Z,102236.81
2023-02-27T03:50:58.335Z,102237.53
2023-02-27T03:53:50.783Z,102226.00
2023-02-27T03:56:42.369Z,102184.31
2023-02-27T03:59:31.997Z,102237.66
2023-02-27T04:02:19.406Z,102234.34
2023-02-27T04:05:06.428Z,102238.13
2023-02-27T04:08:33.495Z,102249.63
2023-02-27T04:11:41.239Z,102251.16
2023-02-27T04:14:44.721Z,102256.44
2023-02-27T04:17:34.445Z,102258.06
2023-02-27T04:20:40.158Z,102254.53
2023-02-27T04:23:37.038Z,102255.34
2023-02-27T04:26:30.631Z,102257.91
2023-02-27T04:29:21.134Z,102255.22
2023-02-27T04:32:16.947Z,102253.47
2023-02-27T04:35:11.010Z,102251.94
2023-02-27T04:38:03.170Z,102255.91
2023-02-27T04:40:55.201Z,102257.19
2023-02-27T04:43:45.389Z,102245.78
2023-02-27T04:46:35.021Z,102246.47
2023-02-27T04:49:26.857Z,102241.09
2023-02-27T04:52:18.584Z,102237.22
2023-02-27T04:55:09.835Z,102243.72
2023-02-27T04:58:03.080Z,102248.63
2023-02-27T05:00:57.010Z,102253.59
2023-02-27T05:03:48.671Z,102248.06
2023-02-27T05:06:39.152Z,102253.09
2023-02-27T05:09:35.184Z,102252.88
2023-02-27T05:12:26.938Z,102253.78
2023-02-27T05:15:20.117Z,102253.66
2023-02-27T05:18:09.460Z,102260.94
2023-02-27T05:21:05.300Z,102263.59
2023-02-27T05:24:02.218Z,102258.28
2023-02-27T05:27:07.444Z,102257.81
2023-02-27T05:29:57.510Z,102275.38
2023-02-27T05:32:50.568Z,102280.59
2023-02-27T05:35:43.995Z,102289.72
2023-02-27T05:38:35.717Z,102288.13
2023-02-27T05:41:27.757Z,102287.44
2023-02-27T05:44:18.508Z,102281.22
2023-02-27T05:47:10.565Z,102282.69
2023-02-27T05:50:03.126Z,102292.63
2023-02-27T05:52:52.721Z,102294.06
2023-02-27T05:55:42.790Z,102306.28
2023-02-27T05:58:33.809Z,102331.91
2023-02-27T06:01:20.820Z,102316.63
2023-02-27T06:04:07.750Z,102328.69
2023-02-27T06:06:57.239Z,102336.81
2023-02-27T06:09:45.163Z,102329.28
2023-02-27T06:12:31.669Z,102336.50
2023-02-27T06:15:19.716Z,102343.78
2023-02-27T06:18:06.605Z,102349.16
2023-02-27T06:20:53.364Z,102351.53
2023-02-27T06:23:41.549Z,102348.22
2023-02-27T06:26:28.631Z,102341.47
2023-02-27T06:29:15.545Z,102356.75
2023-02-27T06:32:02.357Z,102362.56
2023-02-27T06:34:49.102Z,102355.50
2023-02-27T06:37:36.004Z,102346.34
2023-02-27T06:40:24.722Z,102349.84
2023-02-27T06:43:11.565Z,102347.19
2023-02-27T06:45:58.041Z,102350.97
2023-02-27T06:48:45.656Z,102348.13
2023-02-27T06:51:32.833Z,102349.38
2023-02-27T06:54:19.261Z,102367.06
2023-02-27T06:57:07.601Z,102370.22
2023-02-27T06:59:54.340Z,102372.47
2023-02-27T07:02:41.273Z,102378.16
2023-02-27T07:05:27.722Z,102382.44
2023-02-27T07:08:17.773Z,102388.13
2023-02-27T07:11:04.719Z,102380.31
2023-02-27T07:13:52.800Z,102383.13
2023-02-27T07:16:39.709Z,102382.28
2023-02-27T07:19:27.015Z,102389.47
2023-02-27T07:22:13.967Z,102392.72
2023-02-27T07:25:00.735Z,102398.50
2023-02-27T07:27:49.795Z,102396.53
2023-02-27T07:30:37.702Z,102401.88
2023-02-27T07:33:24.159Z,102403.69
2023-02-27T07:36:11.271Z,102404.84
2023-02-27T07:38:58.505Z,102390.25
2023-02-27T07:41:44.968Z,102398.16
2023-02-27T07:44:36.678Z,102400.75
2023-02-27T07:47:24.762Z,102398.91
2023-02-27T07:50:14.121Z,102391.72
2023-02-27T07:53:00.965Z,102399.41
2023-02-27T07:55:47.903Z,102410.28
2023-02-27T07:58:34.530Z,102416.66
2023-02-27T08:01:21.277Z,102413.81
2023-02-27T08:04:09.477Z,102421.63
2023-02-27T08:06:56.378Z,102422.75
2023-02-27T08:09:43.272Z,102422.56
2023-02-27T08:12:29.906Z,102427.28
2023-02-27T08:15:17.660Z,102427.13
2023-02-27T08:18:04.194Z,102420.69
2023-02-27T08:20:52.440Z,102429.63
2023-02-27T08:23:39.355Z,102418.03
2023-02-27T08:26:27.009Z,102411.19
2023-02-27T08:29:15.151Z,102431.09
2023-02-27T08:32:04.916Z,102431.47
2023-02-27T08:34:51.622Z,102435.78
2023-02-27T08:37:39.773Z,102432.72
2023-02-27T08:40:26.575Z,102424.69
2023-02-27T08:43:13.403Z,102421.13
2023-02-27T08:46:00.238Z,102428.72
2023-02-27T08:48:47.067Z,102411.00
2023-02-27T08:51:33.811Z,102428.34
2023-02-27T08:54:22.139Z,102431.53
2023-02-27T08:57:09.528Z,102429.69
2023-02-27T08:59:57.729Z,102428.34
2023-02-27T09:02:46.597Z,102431.47
2023-02-27T09:05:35.778Z,102423.72
2023-02-27T09:08:25.607Z,102426.97
2023-02-27T09:11:15.006Z,102427.44
2023-02-27T09:14:02.051Z,102424.84
2023-02-27T09:16:48.697Z,102418.69
2023-02-27T09:19:36.257Z,102425.38
2023-02-27T09:22:22.872Z,102433.47
2023-02-27T09:25:10.522Z,102436.72
2023-02-27T09:27:59.221Z,102437.25
2023-02-27T09:30:45.713Z,102441.56
2023-02-27T09:33:33.034Z,102438.97
2023-02-27T09:36:19.858Z,102448.41
2023-02-27T09:39:06.690Z,102456.03
2023-02-27T09:41:58.874Z,102456.72
2023-02-27T09:44:48.766Z,102468.09
2023-02-27T09:47:39.245Z,102467.41
2023-02-27T09:50:37.216Z,102475.63
2023-02-27T09:53:27.151Z,102471.28
2023-02-27T09:56:21.257Z,102462.53
2023-02-27T09:59:19.756Z,102475.75
2023-02-27T10:02:21.782Z,102472.66
2023-02-27T10:05:20.507Z,102474.72
2023-02-27T10:08:16.396Z,102476.97
2023-02-27T10:11:06.116Z,102481.63
2023-02-27T10:14:04.120Z,102487.66
2023-02-27T10:16:53.611Z,102483.19
2023-02-27T10:19:45.085Z,102480.69
2023-02-27T10:22:36.600Z,102488.31
2023-02-27T10:25:31.650Z,102481.78
2023-02-27T10:28:21.058Z,102479.47
2023-02-27T10:31:18.191Z,102485.88
2023-02-27T10:34:06.004Z,102483.28
2023-02-27T10:36:54.792Z,102484.16
2023-02-27T10:39:47.436Z,102492.16
2023-02-27T10:42:37.512Z,102496.69
2023-02-27T10:45:24.321Z,102492.19
2023-02-27T10:48:11.080Z,102488.13
2023-02-27T10:51:22.915Z,102490.97
2023-02-27T10:54:18.263Z,102494.59
2023-02-27T10:57:19.274Z,102489.34
2023-02-27T11:00:09.786Z,102468.91
2023-02-27T11:02:56.559Z,102498.88
2023-02-27T11:05:44.021Z,102495.47
2023-02-27T11:08:34.649Z,102493.84
2023-02-27T11:11:29.570Z,102489.56
2023-02-27T11:14:28.027Z,102492.00
2023-02-27T11:17:23.927Z,102477.00
2023-02-27T11:20:35.582Z,102484.88
2023-02-27T11:23:24.287Z,102488.38
2023-02-27T11:26:17.332Z,102487.91
2023-02-27T11:29:15.204Z,102486.41
2023-02-27T11:32:06.327Z,102490.16
2023-02-27T11:34:54.032Z,102475.31
2023-02-27T11:37:41.996Z,102471.78
2023-02-27T11:40:33.049Z,102476.94
2023-02-27T11:43:22.865Z,102478.75
2023-02-27T11:46:26.051Z,102479.13
2023-02-27T11:49:31.365Z,102478.28
2023-02-27T11:52:28.892Z,102473.84
2023-02-27T11:55:19.079Z,102466.00
2023-02-27T11:58:13.108Z,102471.41
2023-02-27T12:01:05.091Z,102476.75
2023-02-27T12:03:57.616Z,102472.25
2023-02-27T12:06:52.094Z,102477.25
2023-02-27T12:09:45.532Z,102487.88
2023-02-27T12:12:38.009Z,102475.84
2023-02-27T12:15:31.705Z,102446.09
2023-02-27T12:18:24.728Z,102477.75
2023-02-27T12:21:14.487Z,102482.63
2023-02-27T12:24:08.101Z,102476.56
2023-02-27T12:27:07.496Z,102472.09
2023-02-27T12:30:00.310Z,102472.22
2023-02-27T12:32:53.902Z,102480.69
2023-02-27T12:35:45.764Z,102476.22
2023-02-27T12:38:34.647Z,102474.47
2023-02-27T12:41:37.132Z,102472.31
2023-02-27T12:44:37.378Z,102473.19
2023-02-27T12:47:37.307Z,102464.38
2023-02-27T12:50:25.755Z,102479.44
2023-02-27T12:53:30.364Z,102470.75
2023-02-27T12:56:20.205Z,102469.91
2023-02-27T12:59:19.918Z,102474.19
2023-02-27T13:02:25.382Z,102477.78
2023-02-27T13:05:29.345Z,102478.69
2023-02-27T13:08:43.328Z,102477.00
2023-02-27T13:11:43.885Z,102478.59
2023-02-27T13:14:39.421Z,102483.00
2023-02-27T13:17:32.707Z,102453.16
2023-02-27T13:20:33.535Z,102444.41
2023-02-27T13:23:27.791Z,102466.88
2023-02-27T13:26:19.974Z,102474.78
2023-02-27T13:29:07.983Z,102470.47
2023-02-27T13:32:00.503Z,102435.94
2023-02-27T13:34:50.318Z,102466.16
2023-02-27T13:37:55.115Z,102471.28
2023-02-27T13:40:43.419Z,102478.38
2023-02-27T13:43:46.460Z,102473.03
2023-02-27T13:46:38.236Z,102475.78
2023-02-27T13:49:29.525Z,102471.41
2023-02-27T13:52:29.993Z,102480.38
2023-02-27T13:55:28.574Z,102419.56
2023-02-27T13:58:25.815Z,102474.28
2023-02-27T14:01:18.310Z,102475.22
2023-02-27T14:04:08.693Z,102478.72
2023-02-27T14:07:01.028Z,102454.63
2023-02-27T14:09:50.716Z,102481.78
2023-02-27T14:12:45.521Z,102480.03
2023-02-27T14:16:01.063Z,102479.84
2023-02-27T14:18:57.299Z,102477.06
2023-02-27T14:21:55.884Z,102482.56
2023-02-27T14:25:01.562Z,102487.88
2023-02-27T14:27:54.655Z,102478.28
2023-02-27T14:30:46.736Z,102475.53
2023-02-27T14:33:41.905Z,102475.41
2023-02-27T14:36:31.319Z,102478.13
2023-02-27T14:39:23.626Z,102465.84
2023-02-27T14:42:30.911Z,102486.25
2023-02-27T14:45:24.243Z,102488.00
2023-02-27T14:48:11.878Z,102464.25
2023-02-27T14:51:02.886Z,102488.09
2023-02-27T14:54:01.867Z,102482.72
2023-02-27T14:56:56.210Z,102498.63
2023-02-27T14:59:45.165Z,102491.50
2023-02-27T15:02:36.723Z,102500.09
2023-02-27T15:05:31.287Z,102495.69
2023-02-27T15:08:23.908Z,102495.69
2023-02-27T15:11:16.251Z,102496.47
2023-02-27T15:14:04.630Z,102498.28
2023-02-27T15:16:55.871Z,102496.41
2023-02-27T15:19:48.225Z,102466.34
2023-02-27T15:22:40.211Z,102509.44
2023-02-27T15:25:31.009Z,102505.88
2023-02-27T15:28:23.598Z,102501.66
2023-02-27T15:31:18.871Z,102503.97
2023-02-27T15:34:05.459Z,102503.13
2023-02-27T15:36:54.621Z,102508.47
2023-02-27T15:39:41.381Z,102504.25
2023-02-27T15:42:32.915Z,102497.25
2023-02-27T15:45:21.269Z,102506.84
2023-02-27T15:48:08.344Z,102503.97
2023-02-27T15:50:58.151Z,102512.81
2023-02-27T15:53:50.512Z,102513.63
2023-02-27T15:56:40.129Z,102514.38
2023-02-27T15:59:31.039Z,102508.91
2023-02-27T16:02:21.772Z,102509.53
2023-02-27T16:05:17.236Z,102510.16
2023-02-27T16:08:04.593Z,102514.25
2023-02-27T16:10:52.089Z,102513.13
2023-02-27T16:13:40.747Z,102524.31
2023-02-27T16:16:35.176Z,102526.69
2023-02-27T16:19:27.438Z,102518.47
2023-02-27T16:22:16.286Z,102531.53
2023-02-27T16:25:11.235Z,102538.19
2023-02-27T16:27:57.877Z,102530.00
2023-02-27T16:30:44.768Z,102533.34
2023-02-27T16:33:36.757Z,102529.75
2023-02-27T16:36:25.640Z,102526.91
2023-02-27T16:39:13.527Z,102537.69
2023-02-27T16:42:05.903Z,102540.31
2023-02-27T16:45:00.382Z,102541.91
2023-02-27T16:47:57.420Z,102549.59
2023-02-27T16:50:48.039Z,102552.09
2023-02-27T16:53:34.843Z,102550.34
2023-02-27T16:56:35.859Z,102557.09
2023-02-27T16:59:33.487Z,102553.41
2023-02-27T17:02:20.032Z,102551.50
2023-02-27T17:05:08.349Z,102555.75
2023-02-27T17:07:56.528Z,102556.41
2023-02-27T17:10:43.151Z,102555.34
2023-02-27T17:13:30.094Z,102564.00
2023-02-27T17:16:17.227Z,102560.34
2023-02-27T17:19:03.583Z,102567.09
2023-02-27T17:21:50.666Z,102567.88
2023-02-27T17:24:39.034Z,102569.38
2023-02-27T17:27:25.995Z,102572.00
2023-02-27T17:30:14.169Z,102575.56
2023-02-27T17:33:03.812Z,102570.41
2023-02-27T17:36:12.897Z,102567.59
2023-02-27T17:39:04.861Z,102565.38
2023-02-27T17:41:54.519Z,102566.91
2023-02-27T17:44:41.610Z,102579.78
2023-02-27T17:47:29.632Z,102581.38
2023-02-27T17:50:16.065Z,102587.53
2023-02-27T17:53:03.611Z,102585.84
2023-02-27T17:55:54.967Z,102591.00
2023-02-27T17:58:45.562Z,102588.44
2023-02-27T18:01:32.274Z,102577.81
2023-02-27T18:04:19.007Z,102584.16
2023-02-27T18:07:06.013Z,102578.00
2023-02-27T18:09:54.843Z,102588.81
2023-02-27T18:12:41.527Z,102582.25
2023-02-27T18:15:29.720Z,102584.25
2023-02-27T18:18:16.602Z,102586.50
2023-02-27T18:21:05.496Z,102580.31
2023-02-27T18:23:53.209Z,102582.06
2023-02-27T18:26:40.824Z,102581.97
2023-02-27T18:29:27.430Z,102580.97
2023-02-27T18:32:15.676Z,102579.09
2023-02-27T18:35:02.358Z,102584.13
2023-02-27T18:37:49.180Z,102581.38
2023-02-27T18:40:36.035Z,102583.84
2023-02-27T18:43:22.641Z,102581.06
2023-02-27T18:46:10.680Z,102560.31
2023-02-27T18:49:00.248Z,102587.78
2023-02-27T18:51:47.397Z,102583.44
2023-02-27T18:54:34.214Z,102596.53
2023-02-27T18:57:21.234Z,102594.75
2023-02-27T19:00:09.604Z,102552.78
2023-02-27T19:02:56.363Z,102600.56
2023-02-27T19:05:44.612Z,102599.56
2023-02-27T19:08:31.688Z,102602.09
2023-02-27T19:11:33.141Z,102604.63
2023-02-27T19:14:19.847Z,102609.75
2023-02-27T19:17:07.421Z,102601.75
2023-02-27T19:19:57.693Z,102604.25
2023-02-27T19:22:45.617Z,102610.03
2023-02-27T19:25:38.072Z,102610.66
2023-02-27T19:28:25.418Z,102610.47
2023-02-27T19:31:13.987Z,102611.22
2023-02-27T19:34:01.138Z,102618.16
2023-02-27T19:36:47.908Z,102617.78
2023-02-27T19:39:45.940Z,102614.31
2023-02-27T19:42:33.413Z,102623.50
2023-02-27T19:45:20.435Z,102616.53
2023-02-27T19:48:08.115Z,102624.53
2023-02-27T19:50:54.638Z,102624.09
2023-02-27T19:53:43.348Z,102631.03
2023-02-27T19:56:37.572Z,102624.38
2023-02-27T19:59:24.916Z,102628.81
2023-02-27T20:02:11.810Z,102626.16
2023-02-27T20:04:58.392Z,102627.72
2023-02-27T20:07:46.884Z,102623.59
2023-02-27T20:10:33.560Z,102620.63
2023-02-27T20:13:21.717Z,102626.50
2023-02-27T20:16:10.009Z,102626.59
2023-02-27T20:18:57.002Z,102622.78
2023-02-27T20:21:43.575Z,102629.06
2023-02-27T20:24:30.378Z,102635.38
2023-02-27T20:27:17.111Z,102633.66
2023-02-27T20:30:06.212Z,102632.81
2023-02-27T20:32:55.177Z,102631.09
2023-02-27T20:35:42.151Z,102638.28
2023-02-27T20:38:29.991Z,102643.03
2023-02-27T20:41:19.695Z,102633.47
2023-02-27T20:44:08.255Z,102641.44
2023-02-27T20:46:56.737Z,102626.25
2023-02-27T20:49:43.263Z,102636.97
2023-02-27T20:52:30.078Z,102632.63
2023-02-27T20:55:16.869Z,102633.38
2023-02-27T20:58:03.534Z,102563.81
2023-02-27T21:00:50.473Z,102642.53
2023-02-27T21:03:40.308Z,102643.53
2023-02-27T21:06:27.119Z,102639.91
2023-02-27T21:09:13.609Z,102637.00
2023-02-27T21:12:00.426Z,102634.44
2023-02-27T21:14:49.391Z,102637.06
2023-02-27T21:17:35.895Z,102640.59
2023-02-27T21:20:23.832Z,102641.34
2023-02-27T21:23:11.285Z,102654.50
2023-02-27T21:25:58.404Z,102641.66
2023-02-27T21:28:47.903Z,102648.44
2023-02-27T21:31:35.465Z,102653.38
2023-02-27T21:34:24.560Z,102649.09
2023-02-27T21:37:12.871Z,102646.47
2023-02-27T21:40:01.889Z,102651.13
2023-02-27T21:42:48.540Z,102643.13
2023-02-27T21:45:38.724Z,102644.47
2023-02-27T21:48:25.428Z,102638.03
2023-02-27T21:51:12.682Z,102643.03
2023-02-27T21:54:02.619Z,102646.56
2023-02-27T21:56:50.467Z,102645.00
2023-02-27T21:59:37.465Z,102650.38
2023-02-27T22:02:26.978Z,102639.78
2023-02-27T22:05:13.501Z,102642.38
2023-02-27T22:08:00.444Z,102640.50
2023-02-27T22:10:48.547Z,102643.31
2023-02-27T22:13:36.058Z,102639.66
2023-02-27T22:16:23.006Z,102647.06
2023-02-27T22:19:11.258Z,102653.88
2023-02-27T22:21:58.030Z,102650.47
2023-02-27T22:24:44.847Z,102647.13
2023-02-27T22:27:33.104Z,102648.56
2023-02-27T22:30:20.033Z,102660.69
2023-02-27T22:33:06.463Z,102650.53
2023-02-27T22:35:53.302Z,102652.09
2023-02-27T22:38:40.474Z,102653.53
2023-02-27T22:41:30.722Z,102652.28
2023-02-27T22:44:19.038Z,102657.13
2023-02-27T22:47:05.763Z,102660.34
2023-02-27T22:49:52.628Z,102658.41
2023-02-27T22:52:39.202Z,102664.38
2023-02-27T22:55:25.873Z,102669.47
2023-02-27T22:58:12.619Z,102662.59
2023-02-27T23:01:01.767Z,102666.81
2023-02-27T23:03:52.212Z,102668.44
2023-02-27T23:06:40.405Z,102666.44
2023-02-27T23:09:27.565Z,102672.59
2023-02-27T23:12:14.346Z,102672.16
2023-02-27T23:15:03.216Z,102672.38
2023-02-27T23:17:57.804Z,102682.00
2023-02-27T23:20:47.253Z,102679.72
2023-02-27T23:23:35.519Z,102648.03
2023-02-27T23:26:23.005Z,102685.09
2023-02-27T23:29:10.180Z,102693.81
2023-02-27T23:31:56.677Z,102692.25
2023-02-27T23:34:49.681Z,102692.75
2023-02-27T23:37:36.353Z,102696.25
2023-02-27T23:40:25.072Z,102692.06
2023-02-27T23:43:29.535Z,102683.13
2023-02-27T23:46:17.226Z,102687.44
2023-02-27T23:49:04.706Z,102693.88
2023-02-27T23:51:52.708Z,102692.50
2023-02-27T23:54:39.287Z,102698.41
2023-02-27T23:57:25.975Z,102697.41
